sensor_id;sensor_type;location;lat;lon;timestamp;P1;durP1;ratioP1;P2;durP2;ratioP2
1719;SDS011;857;52.872;9.692;2023-11-21T00:00:08;19.33;;;9.50;;
1719;SDS011;857;52.872;9.692;2023-11-21T00:02:41;19.83;;;9.40;;
1719;SDS011;857;52.872;9.692;2023-11-21T00:05:08;18.17;;;9.03;;
1719;SDS011;857;52.872;9.692;2023-11-21T00:07:36;19.40;;;8.43;;
1719;SDS011;857;52.872;9.692;2023-11-21T00:10:04;22.53;;;9.63;;
1719;SDS011;857;52.872;9.692;2023-11-21T00:12:32;21.13;;;9.43;;
1719;SDS011;857;52.872;9.692;2023-11-21T00:15:00;25.97;;;9.87;;
1719;SDS011;857;52.872;9.692;2023-11-21T00:17:29;24.80;;;8.63;;
1719;SDS011;857;52.872;9.692;2023-11-21T00:19:57;19.20;;;8.77;;
1719;SDS011;857;52.872;9.692;2023-11-21T00:22:24;18.63;;;8.70;;
1719;SDS011;857;52.872;9.692;2023-11-21T00:24:52;19.47;;;9.40;;
1719;SDS011;857;52.872;9.692;2023-11-21T00:27:20;19.37;;;9.20;;
1719;SDS011;857;52.872;9.692;2023-11-21T00:29:47;29.93;;;9.47;;
1719;SDS011;857;52.872;9.692;2023-11-21T00:32:15;18.07;;;9.00;;
1719;SDS011;857;52.872;9.692;2023-11-21T00:34:44;24.87;;;9.00;;
1719;SDS011;857;52.872;9.692;2023-11-21T00:37:12;22.23;;;8.43;;
1719;SDS011;857;52.872;9.692;2023-11-21T00:39:41;20.17;;;9.20;;
1719;SDS011;857;52.872;9.692;2023-11-21T00:42:09;23.83;;;9.47;;
1719;SDS011;857;52.872;9.692;2023-11-21T00:44:37;22.90;;;10.07;;
1719;SDS011;857;52.872;9.692;2023-11-21T00:47:05;24.30;;;9.77;;
1719;SDS011;857;52.872;9.692;2023-11-21T00:49:33;23.23;;;9.57;;
1719;SDS011;857;52.872;9.692;2023-11-21T00:52:02;19.00;;;8.63;;
1719;SDS011;857;52.872;9.692;2023-11-21T00:54:31;23.33;;;9.83;;
1719;SDS011;857;52.872;9.692;2023-11-21T00:56:59;21.43;;;10.17;;
1719;SDS011;857;52.872;9.692;2023-11-21T00:59:27;26.50;;;10.60;;
1719;SDS011;857;52.872;9.692;2023-11-21T01:01:54;19.10;;;10.50;;
1719;SDS011;857;52.872;9.692;2023-11-21T01:04:25;20.47;;;9.00;;
1719;SDS011;857;52.872;9.692;2023-11-21T01:06:53;16.43;;;9.60;;
1719;SDS011;857;52.872;9.692;2023-11-21T01:09:23;21.60;;;11.23;;
1719;SDS011;857;52.872;9.692;2023-11-21T01:11:51;28.40;;;10.93;;
1719;SDS011;857;52.872;9.692;2023-11-21T01:14:19;22.10;;;12.00;;
1719;SDS011;857;52.872;9.692;2023-11-21T01:16:46;20.00;;;10.30;;
1719;SDS011;857;52.872;9.692;2023-11-21T01:19:14;22.97;;;10.93;;
1719;SDS011;857;52.872;9.692;2023-11-21T01:21:42;20.30;;;9.90;;
1719;SDS011;857;52.872;9.692;2023-11-21T01:24:10;23.00;;;10.70;;
1719;SDS011;857;52.872;9.692;2023-11-21T01:26:38;23.60;;;9.90;;
1719;SDS011;857;52.872;9.692;2023-11-21T01:29:06;25.40;;;10.40;;
1719;SDS011;857;52.872;9.692;2023-11-21T01:31:34;24.67;;;11.07;;
1719;SDS011;857;52.872;9.692;2023-11-21T01:34:01;23.33;;;11.63;;
1719;SDS011;857;52.872;9.692;2023-11-21T01:36:30;25.70;;;10.97;;
1719;SDS011;857;52.872;9.692;2023-11-21T01:38:59;22.33;;;10.67;;
1719;SDS011;857;52.872;9.692;2023-11-21T01:41:26;24.20;;;11.67;;
1719;SDS011;857;52.872;9.692;2023-11-21T01:43:56;20.60;;;10.20;;
1719;SDS011;857;52.872;9.692;2023-11-21T01:46:24;21.30;;;10.10;;
1719;SDS011;857;52.872;9.692;2023-11-21T01:48:52;21.33;;;10.70;;
1719;SDS011;857;52.872;9.692;2023-11-21T01:51:20;23.23;;;10.90;;
1719;SDS011;857;52.872;9.692;2023-11-21T01:53:47;24.60;;;10.60;;
1719;SDS011;857;52.872;9.692;2023-11-21T01:56:16;28.23;;;11.67;;
1719;SDS011;857;52.872;9.692;2023-11-21T01:58:43;28.37;;;10.70;;
1719;SDS011;857;52.872;9.692;2023-11-21T02:01:13;18.17;;;10.40;;
1719;SDS011;857;52.872;9.692;2023-11-21T02:03:42;18.27;;;10.87;;
1719;SDS011;857;52.872;9.692;2023-11-21T02:06:10;23.43;;;11.00;;
1719;SDS011;857;52.872;9.692;2023-11-21T02:08:38;17.70;;;9.67;;
1719;SDS011;857;52.872;9.692;2023-11-21T02:11:08;21.27;;;9.97;;
1719;SDS011;857;52.872;9.692;2023-11-21T02:13:35;20.77;;;10.40;;
1719;SDS011;857;52.872;9.692;2023-11-21T02:16:03;24.07;;;11.13;;
1719;SDS011;857;52.872;9.692;2023-11-21T02:18:33;25.13;;;10.63;;
1719;SDS011;857;52.872;9.692;2023-11-21T02:21:00;20.00;;;9.70;;
1719;SDS011;857;52.872;9.692;2023-11-21T02:23:30;22.13;;;10.23;;
1719;SDS011;857;52.872;9.692;2023-11-21T02:25:57;20.50;;;10.50;;
1719;SDS011;857;52.872;9.692;2023-11-21T02:28:29;22.70;;;10.57;;
1719;SDS011;857;52.872;9.692;2023-11-21T02:30:58;20.50;;;9.83;;
1719;SDS011;857;52.872;9.692;2023-11-21T02:33:28;28.30;;;10.47;;
1719;SDS011;857;52.872;9.692;2023-11-21T02:35:59;27.20;;;10.97;;
1719;SDS011;857;52.872;9.692;2023-11-21T02:38:27;24.00;;;10.93;;
1719;SDS011;857;52.872;9.692;2023-11-21T02:40:57;21.20;;;10.10;;
1719;SDS011;857;52.872;9.692;2023-11-21T02:43:25;24.30;;;9.80;;
1719;SDS011;857;52.872;9.692;2023-11-21T02:45:52;23.30;;;9.67;;
1719;SDS011;857;52.872;9.692;2023-11-21T02:48:20;19.60;;;9.60;;
1719;SDS011;857;52.872;9.692;2023-11-21T02:50:49;27.97;;;10.57;;
1719;SDS011;857;52.872;9.692;2023-11-21T02:53:18;21.37;;;9.67;;
1719;SDS011;857;52.872;9.692;2023-11-21T02:55:46;21.50;;;10.20;;
1719;SDS011;857;52.872;9.692;2023-11-21T02:58:18;21.97;;;9.17;;
1719;SDS011;857;52.872;9.692;2023-11-21T03:00:46;22.00;;;9.60;;
1719;SDS011;857;52.872;9.692;2023-11-21T03:03:14;25.40;;;10.97;;
1719;SDS011;857;52.872;9.692;2023-11-21T03:05:42;21.73;;;10.87;;
1719;SDS011;857;52.872;9.692;2023-11-21T03:08:10;24.70;;;9.77;;
1719;SDS011;857;52.872;9.692;2023-11-21T03:10:38;20.40;;;9.23;;
1719;SDS011;857;52.872;9.692;2023-11-21T03:13:05;25.07;;;10.07;;
1719;SDS011;857;52.872;9.692;2023-11-21T03:15:35;18.97;;;9.20;;
1719;SDS011;857;52.872;9.692;2023-11-21T03:18:03;22.50;;;10.80;;
1719;SDS011;857;52.872;9.692;2023-11-21T03:20:31;22.20;;;10.70;;
1719;SDS011;857;52.872;9.692;2023-11-21T03:22:58;19.90;;;9.50;;
1719;SDS011;857;52.872;9.692;2023-11-21T03:25:26;19.27;;;9.30;;
1719;SDS011;857;52.872;9.692;2023-11-21T03:27:54;18.27;;;8.93;;
1719;SDS011;857;52.872;9.692;2023-11-21T03:30:22;20.40;;;9.93;;
1719;SDS011;857;52.872;9.692;2023-11-21T03:32:51;18.47;;;9.90;;
1719;SDS011;857;52.872;9.692;2023-11-21T03:35:19;16.40;;;8.10;;
1719;SDS011;857;52.872;9.692;2023-11-21T03:37:47;14.33;;;8.33;;
1719;SDS011;857;52.872;9.692;2023-11-21T03:40:15;9.67;;;5.10;;
1719;SDS011;857;52.872;9.692;2023-11-21T03:42:46;4.40;;;2.87;;
1719;SDS011;857;52.872;9.692;2023-11-21T03:45:14;6.23;;;3.80;;
1719;SDS011;857;52.872;9.692;2023-11-21T03:47:44;7.00;;;3.73;;
1719;SDS011;857;52.872;9.692;2023-11-21T03:50:18;3.30;;;1.70;;
1719;SDS011;857;52.872;9.692;2023-11-21T03:52:46;12.43;;;4.93;;
1719;SDS011;857;52.872;9.692;2023-11-21T03:55:14;3.33;;;1.80;;
1719;SDS011;857;52.872;9.692;2023-11-21T03:57:43;4.20;;;2.23;;
1719;SDS011;857;52.872;9.692;2023-11-21T04:00:14;8.03;;;4.10;;
1719;SDS011;857;52.872;9.692;2023-11-21T04:02:42;4.53;;;1.67;;
1719;SDS011;857;52.872;9.692;2023-11-21T04:05:10;1.10;;;0.87;;
1719;SDS011;857;52.872;9.692;2023-11-21T04:07:40;4.23;;;2.73;;
1719;SDS011;857;52.872;9.692;2023-11-21T04:10:08;1.60;;;0.80;;
1719;SDS011;857;52.872;9.692;2023-11-21T04:12:38;2.70;;;1.50;;
1719;SDS011;857;52.872;9.692;2023-11-21T04:15:06;1.77;;;1.50;;
1719;SDS011;857;52.872;9.692;2023-11-21T04:17:35;3.60;;;1.50;;
1719;SDS011;857;52.872;9.692;2023-11-21T04:20:03;1.30;;;1.17;;
1719;SDS011;857;52.872;9.692;2023-11-21T04:22:37;3.70;;;2.00;;
1719;SDS011;857;52.872;9.692;2023-11-21T04:25:10;3.00;;;1.33;;
1719;SDS011;857;52.872;9.692;2023-11-21T04:27:39;1.90;;;1.20;;
1719;SDS011;857;52.872;9.692;2023-11-21T04:30:09;2.20;;;1.23;;
1719;SDS011;857;52.872;9.692;2023-11-21T04:32:37;4.97;;;2.00;;
1719;SDS011;857;52.872;9.692;2023-11-21T04:35:05;1.70;;;1.60;;
1719;SDS011;857;52.872;9.692;2023-11-21T04:37:34;2.63;;;2.07;;
1719;SDS011;857;52.872;9.692;2023-11-21T04:40:02;4.70;;;2.43;;
1719;SDS011;857;52.872;9.692;2023-11-21T04:42:36;3.80;;;2.17;;
1719;SDS011;857;52.872;9.692;2023-11-21T04:45:07;2.40;;;2.17;;
1719;SDS011;857;52.872;9.692;2023-11-21T04:47:37;2.63;;;2.10;;
1719;SDS011;857;52.872;9.692;2023-11-21T04:50:05;2.90;;;2.07;;
1719;SDS011;857;52.872;9.692;2023-11-21T04:52:33;2.90;;;2.07;;
1719;SDS011;857;52.872;9.692;2023-11-21T04:55:01;6.43;;;2.10;;
1719;SDS011;857;52.872;9.692;2023-11-21T04:57:28;2.10;;;1.60;;
1719;SDS011;857;52.872;9.692;2023-11-21T04:59:58;2.70;;;1.73;;
1719;SDS011;857;52.872;9.692;2023-11-21T05:02:26;3.40;;;1.63;;
1719;SDS011;857;52.872;9.692;2023-11-21T05:04:53;2.20;;;1.70;;
1719;SDS011;857;52.872;9.692;2023-11-21T05:07:22;1.60;;;1.27;;
1719;SDS011;857;52.872;9.692;2023-11-21T05:09:49;1.77;;;1.53;;
1719;SDS011;857;52.872;9.692;2023-11-21T05:12:17;2.33;;;1.70;;
1719;SDS011;857;52.872;9.692;2023-11-21T05:14:45;2.80;;;2.00;;
1719;SDS011;857;52.872;9.692;2023-11-21T05:17:15;2.40;;;1.90;;
1719;SDS011;857;52.872;9.692;2023-11-21T05:19:43;3.10;;;2.50;;
1719;SDS011;857;52.872;9.692;2023-11-21T05:22:12;2.43;;;1.97;;
1719;SDS011;857;52.872;9.692;2023-11-21T05:24:39;3.40;;;2.97;;
1719;SDS011;857;52.872;9.692;2023-11-21T05:27:08;3.83;;;3.00;;
1719;SDS011;857;52.872;9.692;2023-11-21T05:29:36;5.67;;;3.20;;
1719;SDS011;857;52.872;9.692;2023-11-21T05:32:04;3.40;;;1.77;;
1719;SDS011;857;52.872;9.692;2023-11-21T05:34:33;6.03;;;3.93;;
1719;SDS011;857;52.872;9.692;2023-11-21T05:37:01;3.90;;;3.30;;
1719;SDS011;857;52.872;9.692;2023-11-21T05:39:31;5.40;;;3.97;;
1719;SDS011;857;52.872;9.692;2023-11-21T05:41:57;5.70;;;3.53;;
1719;SDS011;857;52.872;9.692;2023-11-21T05:44:26;3.90;;;2.70;;
1719;SDS011;857;52.872;9.692;2023-11-21T05:46:53;6.40;;;4.63;;
1719;SDS011;857;52.872;9.692;2023-11-21T05:49:21;6.67;;;4.57;;
1719;SDS011;857;52.872;9.692;2023-11-21T05:55:27;7.47;;;4.83;;
1719;SDS011;857;52.872;9.692;2023-11-21T05:57:55;8.17;;;4.47;;
1719;SDS011;857;52.872;9.692;2023-11-21T06:00:25;7.27;;;5.20;;
1719;SDS011;857;52.872;9.692;2023-11-21T06:02:53;9.07;;;5.57;;
1719;SDS011;857;52.872;9.692;2023-11-21T06:05:23;7.70;;;5.47;;
1719;SDS011;857;52.872;9.692;2023-11-21T06:07:51;9.17;;;6.00;;
1719;SDS011;857;52.872;9.692;2023-11-21T06:10:20;8.43;;;5.47;;
1719;SDS011;857;52.872;9.692;2023-11-21T06:12:51;7.80;;;5.33;;
1719;SDS011;857;52.872;9.692;2023-11-21T06:15:19;8.77;;;5.77;;
1719;SDS011;857;52.872;9.692;2023-11-21T06:17:48;9.70;;;6.50;;
1719;SDS011;857;52.872;9.692;2023-11-21T06:20:18;4.93;;;3.57;;
1719;SDS011;857;52.872;9.692;2023-11-21T06:22:47;9.30;;;5.47;;
1719;SDS011;857;52.872;9.692;2023-11-21T06:25:16;5.60;;;4.27;;
1719;SDS011;857;52.872;9.692;2023-11-21T06:27:44;7.23;;;4.50;;
1719;SDS011;857;52.872;9.692;2023-11-21T06:30:14;14.33;;;7.70;;
1719;SDS011;857;52.872;9.692;2023-11-21T06:32:42;11.10;;;6.80;;
1719;SDS011;857;52.872;9.692;2023-11-21T06:35:12;13.57;;;7.50;;
1719;SDS011;857;52.872;9.692;2023-11-21T06:37:42;4.57;;;3.30;;
1719;SDS011;857;52.872;9.692;2023-11-21T06:40:13;9.10;;;6.70;;
1719;SDS011;857;52.872;9.692;2023-11-21T06:42:41;5.77;;;3.90;;
1719;SDS011;857;52.872;9.692;2023-11-21T06:45:12;5.40;;;3.70;;
1719;SDS011;857;52.872;9.692;2023-11-21T06:47:42;11.60;;;7.03;;
1719;SDS011;857;52.872;9.692;2023-11-21T06:50:10;8.60;;;6.00;;
1719;SDS011;857;52.872;9.692;2023-11-21T06:52:37;10.07;;;5.90;;
1719;SDS011;857;52.872;9.692;2023-11-21T06:55:06;10.10;;;6.97;;
1719;SDS011;857;52.872;9.692;2023-11-21T06:57:38;11.70;;;6.30;;
1719;SDS011;857;52.872;9.692;2023-11-21T07:00:07;13.10;;;7.43;;
1719;SDS011;857;52.872;9.692;2023-11-21T07:02:35;8.03;;;5.93;;
1719;SDS011;857;52.872;9.692;2023-11-21T07:05:05;12.00;;;6.80;;
1719;SDS011;857;52.872;9.692;2023-11-21T07:07:33;11.97;;;7.40;;
1719;SDS011;857;52.872;9.692;2023-11-21T07:10:02;13.47;;;7.77;;
1719;SDS011;857;52.872;9.692;2023-11-21T07:12:31;9.10;;;6.33;;
1719;SDS011;857;52.872;9.692;2023-11-21T07:14:59;12.50;;;7.37;;
1719;SDS011;857;52.872;9.692;2023-11-21T07:17:28;12.40;;;5.33;;
1719;SDS011;857;52.872;9.692;2023-11-21T07:19:57;11.57;;;7.30;;
1719;SDS011;857;52.872;9.692;2023-11-21T07:22:26;14.03;;;8.13;;
1719;SDS011;857;52.872;9.692;2023-11-21T07:24:54;10.33;;;6.90;;
1719;SDS011;857;52.872;9.692;2023-11-21T07:27:22;13.23;;;7.90;;
1719;SDS011;857;52.872;9.692;2023-11-21T07:29:52;13.20;;;7.40;;
1719;SDS011;857;52.872;9.692;2023-11-21T07:32:20;14.80;;;7.60;;
1719;SDS011;857;52.872;9.692;2023-11-21T07:34:47;10.47;;;6.90;;
1719;SDS011;857;52.872;9.692;2023-11-21T07:37:15;15.23;;;8.20;;
1719;SDS011;857;52.872;9.692;2023-11-21T07:39:44;10.37;;;6.77;;
1719;SDS011;857;52.872;9.692;2023-11-21T07:42:14;12.37;;;7.13;;
1719;SDS011;857;52.872;9.692;2023-11-21T07:44:43;12.60;;;7.73;;
1719;SDS011;857;52.872;9.692;2023-11-21T07:47:12;13.03;;;8.00;;
1719;SDS011;857;52.872;9.692;2023-11-21T07:49:39;6.83;;;4.03;;
1719;SDS011;857;52.872;9.692;2023-11-21T07:52:10;13.40;;;8.40;;
1719;SDS011;857;52.872;9.692;2023-11-21T07:54:38;9.70;;;6.73;;
1719;SDS011;857;52.872;9.692;2023-11-21T07:57:07;13.20;;;8.73;;
1719;SDS011;857;52.872;9.692;2023-11-21T07:59:38;11.73;;;7.50;;
1719;SDS011;857;52.872;9.692;2023-11-21T08:02:06;11.03;;;6.90;;
1719;SDS011;857;52.872;9.692;2023-11-21T08:04:34;10.93;;;6.73;;
1719;SDS011;857;52.872;9.692;2023-11-21T08:07:04;11.93;;;8.00;;
1719;SDS011;857;52.872;9.692;2023-11-21T08:09:31;11.87;;;7.47;;
1719;SDS011;857;52.872;9.692;2023-11-21T08:12:00;10.57;;;7.00;;
1719;SDS011;857;52.872;9.692;2023-11-21T08:14:30;11.17;;;6.83;;
1719;SDS011;857;52.872;9.692;2023-11-21T08:16:57;14.47;;;8.90;;
1719;SDS011;857;52.872;9.692;2023-11-21T08:19:25;13.53;;;7.80;;
1719;SDS011;857;52.872;9.692;2023-11-21T08:21:53;8.13;;;5.20;;
1719;SDS011;857;52.872;9.692;2023-11-21T08:24:21;12.53;;;7.80;;
1719;SDS011;857;52.872;9.692;2023-11-21T08:26:48;7.37;;;5.30;;
1719;SDS011;857;52.872;9.692;2023-11-21T08:29:17;10.83;;;7.03;;
1719;SDS011;857;52.872;9.692;2023-11-21T08:31:47;10.87;;;6.80;;
1719;SDS011;857;52.872;9.692;2023-11-21T08:34:14;6.83;;;4.60;;
1719;SDS011;857;52.872;9.692;2023-11-21T08:36:44;12.63;;;8.50;;
1719;SDS011;857;52.872;9.692;2023-11-21T08:39:12;9.13;;;6.50;;
1719;SDS011;857;52.872;9.692;2023-11-21T08:41:42;11.60;;;7.40;;
1719;SDS011;857;52.872;9.692;2023-11-21T08:44:09;10.57;;;7.13;;
1719;SDS011;857;52.872;9.692;2023-11-21T08:46:37;11.77;;;7.40;;
1719;SDS011;857;52.872;9.692;2023-11-21T08:49:09;9.80;;;6.13;;
1719;SDS011;857;52.872;9.692;2023-11-21T08:51:37;11.30;;;7.40;;
1719;SDS011;857;52.872;9.692;2023-11-21T08:54:05;12.00;;;7.37;;
1719;SDS011;857;52.872;9.692;2023-11-21T08:56:33;8.20;;;5.87;;
1719;SDS011;857;52.872;9.692;2023-11-21T08:59:01;6.00;;;4.40;;
1719;SDS011;857;52.872;9.692;2023-11-21T09:01:30;10.13;;;6.43;;
1719;SDS011;857;52.872;9.692;2023-11-21T09:03:58;11.00;;;6.57;;
1719;SDS011;857;52.872;9.692;2023-11-21T09:06:29;9.07;;;6.60;;
1719;SDS011;857;52.872;9.692;2023-11-21T09:08:57;7.87;;;5.20;;
1719;SDS011;857;52.872;9.692;2023-11-21T09:11:25;7.43;;;4.43;;
1719;SDS011;857;52.872;9.692;2023-11-21T09:13:59;10.13;;;7.03;;
1719;SDS011;857;52.872;9.692;2023-11-21T09:16:27;6.40;;;4.77;;
1719;SDS011;857;52.872;9.692;2023-11-21T09:18:55;9.90;;;6.50;;
1719;SDS011;857;52.872;9.692;2023-11-21T09:21:23;5.40;;;4.00;;
1719;SDS011;857;52.872;9.692;2023-11-21T09:23:53;6.90;;;4.20;;
1719;SDS011;857;52.872;9.692;2023-11-21T09:26:21;8.90;;;6.60;;
1719;SDS011;857;52.872;9.692;2023-11-21T09:28:48;9.03;;;5.80;;
1719;SDS011;857;52.872;9.692;2023-11-21T09:31:16;9.00;;;5.73;;
1719;SDS011;857;52.872;9.692;2023-11-21T09:33:48;8.33;;;6.20;;
1719;SDS011;857;52.872;9.692;2023-11-21T09:36:16;10.80;;;6.70;;
1719;SDS011;857;52.872;9.692;2023-11-21T09:38:46;7.13;;;5.40;;
1719;SDS011;857;52.872;9.692;2023-11-21T09:41:19;10.53;;;6.83;;
1719;SDS011;857;52.872;9.692;2023-11-21T09:43:48;8.27;;;6.23;;
1719;SDS011;857;52.872;9.692;2023-11-21T09:46:20;8.03;;;5.63;;
1719;SDS011;857;52.872;9.692;2023-11-21T09:48:50;4.27;;;3.27;;
1719;SDS011;857;52.872;9.692;2023-11-21T09:51:24;4.00;;;3.40;;
1719;SDS011;857;52.872;9.692;2023-11-21T09:53:55;8.97;;;5.90;;
1719;SDS011;857;52.872;9.692;2023-11-21T09:56:26;12.73;;;5.93;;
1719;SDS011;857;52.872;9.692;2023-11-21T09:58:58;8.07;;;6.07;;
1719;SDS011;857;52.872;9.692;2023-11-21T10:01:29;10.83;;;6.57;;
1719;SDS011;857;52.872;9.692;2023-11-21T10:03:59;11.67;;;7.50;;
1719;SDS011;857;52.872;9.692;2023-11-21T10:06:27;10.63;;;7.03;;
1719;SDS011;857;52.872;9.692;2023-11-21T10:08:56;8.70;;;5.60;;
1719;SDS011;857;52.872;9.692;2023-11-21T10:11:25;10.10;;;6.20;;
1719;SDS011;857;52.872;9.692;2023-11-21T10:13:55;8.80;;;5.53;;
1719;SDS011;857;52.872;9.692;2023-11-21T10:16:24;10.60;;;6.03;;
1719;SDS011;857;52.872;9.692;2023-11-21T10:18:53;7.93;;;5.70;;
1719;SDS011;857;52.872;9.692;2023-11-21T10:21:21;4.80;;;3.23;;
1719;SDS011;857;52.872;9.692;2023-11-21T10:23:49;9.70;;;6.20;;
1719;SDS011;857;52.872;9.692;2023-11-21T10:26:18;11.23;;;7.43;;
1719;SDS011;857;52.872;9.692;2023-11-21T10:28:56;4.37;;;3.37;;
1719;SDS011;857;52.872;9.692;2023-11-21T10:31:25;9.23;;;6.00;;
1719;SDS011;857;52.872;9.692;2023-11-21T10:33:55;11.30;;;6.77;;
1719;SDS011;857;52.872;9.692;2023-11-21T10:36:28;8.50;;;5.37;;
1719;SDS011;857;52.872;9.692;2023-11-21T10:38:59;9.47;;;6.40;;
1719;SDS011;857;52.872;9.692;2023-11-21T10:41:27;8.77;;;6.30;;
1719;SDS011;857;52.872;9.692;2023-11-21T10:43:56;8.23;;;5.97;;
1719;SDS011;857;52.872;9.692;2023-11-21T10:46:24;10.60;;;6.20;;
1719;SDS011;857;52.872;9.692;2023-11-21T10:48:52;9.13;;;6.20;;
1719;SDS011;857;52.872;9.692;2023-11-21T10:51:21;9.57;;;6.60;;
1719;SDS011;857;52.872;9.692;2023-11-21T10:53:51;8.70;;;5.50;;
1719;SDS011;857;52.872;9.692;2023-11-21T10:56:19;9.03;;;6.70;;
1719;SDS011;857;52.872;9.692;2023-11-21T10:58:52;8.63;;;6.30;;
1719;SDS011;857;52.872;9.692;2023-11-21T11:01:22;7.87;;;6.10;;
1719;SDS011;857;52.872;9.692;2023-11-21T11:03:54;11.27;;;7.17;;
1719;SDS011;857;52.872;9.692;2023-11-21T11:06:26;9.10;;;6.23;;
1719;SDS011;857;52.872;9.692;2023-11-21T11:08:55;7.83;;;5.00;;
1719;SDS011;857;52.872;9.692;2023-11-21T11:11:23;8.20;;;5.57;;
1719;SDS011;857;52.872;9.692;2023-11-21T11:13:51;10.47;;;7.00;;
1719;SDS011;857;52.872;9.692;2023-11-21T11:16:21;5.90;;;4.30;;
1719;SDS011;857;52.872;9.692;2023-11-21T11:18:50;10.17;;;6.37;;
1719;SDS011;857;52.872;9.692;2023-11-21T11:21:22;8.57;;;6.23;;
1719;SDS011;857;52.872;9.692;2023-11-21T11:26:56;11.20;;;6.73;;
1719;SDS011;857;52.872;9.692;2023-11-21T11:29:27;8.53;;;6.03;;
1719;SDS011;857;52.872;9.692;2023-11-21T11:32:03;4.80;;;3.07;;
1719;SDS011;857;52.872;9.692;2023-11-21T11:34:35;8.50;;;5.73;;
1719;SDS011;857;52.872;9.692;2023-11-21T11:37:05;9.70;;;6.43;;
1719;SDS011;857;52.872;9.692;2023-11-21T11:39:35;5.83;;;2.90;;
1719;SDS011;857;52.872;9.692;2023-11-21T11:42:03;8.37;;;5.80;;
1719;SDS011;857;52.872;9.692;2023-11-21T11:47:36;7.70;;;5.50;;
1719;SDS011;857;52.872;9.692;2023-11-21T11:50:06;7.63;;;5.20;;
1719;SDS011;857;52.872;9.692;2023-11-21T11:52:39;7.80;;;4.97;;
1719;SDS011;857;52.872;9.692;2023-11-21T11:55:08;6.20;;;4.90;;
1719;SDS011;857;52.872;9.692;2023-11-21T11:57:37;9.30;;;5.73;;
1719;SDS011;857;52.872;9.692;2023-11-21T12:00:12;7.47;;;5.23;;
1719;SDS011;857;52.872;9.692;2023-11-21T12:02:48;7.23;;;5.30;;
1719;SDS011;857;52.872;9.692;2023-11-21T12:05:17;7.07;;;5.70;;
1719;SDS011;857;52.872;9.692;2023-11-21T12:07:46;7.73;;;6.00;;
1719;SDS011;857;52.872;9.692;2023-11-21T12:10:14;8.17;;;5.90;;
1719;SDS011;857;52.872;9.692;2023-11-21T12:12:45;9.70;;;5.13;;
1719;SDS011;857;52.872;9.692;2023-11-21T12:15:13;7.87;;;5.40;;
1719;SDS011;857;52.872;9.692;2023-11-21T12:17:41;7.63;;;5.30;;
1719;SDS011;857;52.872;9.692;2023-11-21T12:20:11;6.53;;;5.20;;
1719;SDS011;857;52.872;9.692;2023-11-21T12:22:43;5.70;;;3.90;;
1719;SDS011;857;52.872;9.692;2023-11-21T12:25:13;8.10;;;5.77;;
1719;SDS011;857;52.872;9.692;2023-11-21T12:27:44;7.60;;;6.00;;
1719;SDS011;857;52.872;9.692;2023-11-21T12:30:15;6.17;;;4.57;;
1719;SDS011;857;52.872;9.692;2023-11-21T12:32:44;7.50;;;5.10;;
1719;SDS011;857;52.872;9.692;2023-11-21T12:35:14;4.20;;;3.43;;
1719;SDS011;857;52.872;9.692;2023-11-21T12:37:45;7.37;;;5.00;;
1719;SDS011;857;52.872;9.692;2023-11-21T12:40:13;6.97;;;5.40;;
1719;SDS011;857;52.872;9.692;2023-11-21T12:42:43;7.73;;;5.70;;
1719;SDS011;857;52.872;9.692;2023-11-21T12:45:18;3.93;;;3.47;;
1719;SDS011;857;52.872;9.692;2023-11-21T12:47:47;5.57;;;3.70;;
1719;SDS011;857;52.872;9.692;2023-11-21T12:50:19;6.30;;;4.80;;
1719;SDS011;857;52.872;9.692;2023-11-21T12:52:49;6.50;;;4.93;;
1719;SDS011;857;52.872;9.692;2023-11-21T12:55:19;4.27;;;2.77;;
1719;SDS011;857;52.872;9.692;2023-11-21T12:57:48;8.53;;;5.77;;
1719;SDS011;857;52.872;9.692;2023-11-21T13:00:17;4.93;;;4.40;;
1719;SDS011;857;52.872;9.692;2023-11-21T13:02:53;6.20;;;4.20;;
1719;SDS011;857;52.872;9.692;2023-11-21T13:05:30;2.63;;;2.40;;
1719;SDS011;857;52.872;9.692;2023-11-21T13:07:59;6.33;;;4.50;;
1719;SDS011;857;52.872;9.692;2023-11-21T13:10:29;7.93;;;4.20;;
1719;SDS011;857;52.872;9.692;2023-11-21T13:12:57;4.90;;;4.10;;
1719;SDS011;857;52.872;9.692;2023-11-21T13:15:26;4.37;;;3.73;;
1719;SDS011;857;52.872;9.692;2023-11-21T13:17:54;6.00;;;4.50;;
1719;SDS011;857;52.872;9.692;2023-11-21T13:20:23;4.93;;;4.17;;
1719;SDS011;857;52.872;9.692;2023-11-21T13:22:53;4.23;;;3.80;;
1719;SDS011;857;52.872;9.692;2023-11-21T13:25:23;4.60;;;3.20;;
1719;SDS011;857;52.872;9.692;2023-11-21T13:27:53;5.63;;;4.47;;
1719;SDS011;857;52.872;9.692;2023-11-21T13:30:21;5.80;;;4.27;;
1719;SDS011;857;52.872;9.692;2023-11-21T13:32:52;6.80;;;3.93;;
1719;SDS011;857;52.872;9.692;2023-11-21T13:35:22;5.00;;;4.10;;
1719;SDS011;857;52.872;9.692;2023-11-21T13:38:04;3.70;;;3.37;;
1719;SDS011;857;52.872;9.692;2023-11-21T13:40:32;3.47;;;2.60;;
1719;SDS011;857;52.872;9.692;2023-11-21T13:43:08;4.63;;;4.00;;
1719;SDS011;857;52.872;9.692;2023-11-21T13:45:36;4.73;;;3.33;;
1719;SDS011;857;52.872;9.692;2023-11-21T13:48:05;5.67;;;4.47;;
1719;SDS011;857;52.872;9.692;2023-11-21T13:50:35;5.30;;;4.43;;
1719;SDS011;857;52.872;9.692;2023-11-21T13:53:06;7.27;;;4.80;;
1719;SDS011;857;52.872;9.692;2023-11-21T13:55:43;6.43;;;3.93;;
1719;SDS011;857;52.872;9.692;2023-11-21T13:58:12;5.10;;;4.20;;
1719;SDS011;857;52.872;9.692;2023-11-21T14:00:45;5.90;;;4.27;;
1719;SDS011;857;52.872;9.692;2023-11-21T14:03:19;5.20;;;4.10;;
1719;SDS011;857;52.872;9.692;2023-11-21T14:05:47;5.43;;;4.30;;
1719;SDS011;857;52.872;9.692;2023-11-21T14:08:19;5.00;;;4.00;;
1719;SDS011;857;52.872;9.692;2023-11-21T14:10:53;5.93;;;4.07;;
1719;SDS011;857;52.872;9.692;2023-11-21T14:13:23;4.97;;;3.60;;
1719;SDS011;857;52.872;9.692;2023-11-21T14:15:50;4.50;;;3.57;;
1719;SDS011;857;52.872;9.692;2023-11-21T14:18:23;5.43;;;4.20;;
1719;SDS011;857;52.872;9.692;2023-11-21T14:20:56;5.43;;;4.07;;
1719;SDS011;857;52.872;9.692;2023-11-21T14:23:25;5.20;;;4.60;;
1719;SDS011;857;52.872;9.692;2023-11-21T14:25:54;7.33;;;4.00;;
1719;SDS011;857;52.872;9.692;2023-11-21T14:28:22;6.10;;;4.10;;
1719;SDS011;857;52.872;9.692;2023-11-21T14:30:50;5.50;;;4.47;;
1719;SDS011;857;52.872;9.692;2023-11-21T14:33:18;6.93;;;3.97;;
1719;SDS011;857;52.872;9.692;2023-11-21T14:35:46;9.83;;;5.20;;
1719;SDS011;857;52.872;9.692;2023-11-21T14:38:13;16.63;;;10.47;;
1719;SDS011;857;52.872;9.692;2023-11-21T14:40:43;11.47;;;7.70;;
1719;SDS011;857;52.872;9.692;2023-11-21T14:43:13;7.17;;;5.60;;
1719;SDS011;857;52.872;9.692;2023-11-21T14:45:41;6.53;;;4.67;;
1719;SDS011;857;52.872;9.692;2023-11-21T14:48:09;7.17;;;5.00;;
1719;SDS011;857;52.872;9.692;2023-11-21T14:50:41;7.40;;;5.07;;
1719;SDS011;857;52.872;9.692;2023-11-21T14:53:35;5.23;;;4.00;;
1719;SDS011;857;52.872;9.692;2023-11-21T14:56:20;5.90;;;4.70;;
1719;SDS011;857;52.872;9.692;2023-11-21T14:58:53;5.73;;;4.40;;
1719;SDS011;857;52.872;9.692;2023-11-21T15:01:22;7.00;;;4.97;;
1719;SDS011;857;52.872;9.692;2023-11-21T15:04:02;7.37;;;4.20;;
1719;SDS011;857;52.872;9.692;2023-11-21T15:06:31;4.80;;;4.17;;
1719;SDS011;857;52.872;9.692;2023-11-21T15:08:59;6.57;;;4.60;;
1719;SDS011;857;52.872;9.692;2023-11-21T15:11:55;5.90;;;4.77;;
1719;SDS011;857;52.872;9.692;2023-11-21T15:14:32;7.60;;;4.27;;
1719;SDS011;857;52.872;9.692;2023-11-21T15:17:05;7.40;;;4.57;;
1719;SDS011;857;52.872;9.692;2023-11-21T15:19:36;6.90;;;4.33;;
1719;SDS011;857;52.872;9.692;2023-11-21T15:22:08;8.13;;;4.90;;
1719;SDS011;857;52.872;9.692;2023-11-21T15:24:39;6.73;;;4.53;;
1719;SDS011;857;52.872;9.692;2023-11-21T15:27:09;5.20;;;4.53;;
1719;SDS011;857;52.872;9.692;2023-11-21T15:29:36;5.40;;;3.80;;
1719;SDS011;857;52.872;9.692;2023-11-21T15:32:05;6.93;;;4.63;;
1719;SDS011;857;52.872;9.692;2023-11-21T15:34:33;7.87;;;4.53;;
1719;SDS011;857;52.872;9.692;2023-11-21T15:37:04;5.50;;;4.00;;
1719;SDS011;857;52.872;9.692;2023-11-21T15:39:37;5.87;;;4.60;;
1719;SDS011;857;52.872;9.692;2023-11-21T15:42:09;8.80;;;4.27;;
1719;SDS011;857;52.872;9.692;2023-11-21T15:44:37;5.00;;;4.10;;